createdAt,value
2023-05-23T00:00:20.201Z,92829.25
2023-05-23T00:01:55.344Z,92827.00
2023-05-23T00:03:27.584Z,92826.84
2023-05-23T00:04:59.290Z,92826.38
2023-05-23T00:06:30.908Z,92829.38
2023-05-23T00:08:02.928Z,92842.09
2023-05-23T00:09:34.608Z,92833.13
2023-05-23T00:11:06.222Z,92835.38
2023-05-23T00:12:39.663Z,92838.84
2023-05-23T00:14:17.998Z,92835.69
2023-05-23T00:15:50.129Z,92839.97
2023-05-23T00:17:25.698Z,92836.47
2023-05-23T00:18:59.516Z,92835.97
2023-05-23T00:20:31.244Z,92838.34
2023-05-23T00:22:03.909Z,92846.25
2023-05-23T00:23:35.914Z,92838.13
2023-05-23T00:25:07.741Z,92839.25
2023-05-23T00:26:39.824Z,92834.53
2023-05-23T00:28:11.983Z,92835.16
2023-05-23T00:29:43.885Z,92831.34
2023-05-23T00:31:15.926Z,92833.44
2023-05-23T00:32:47.712Z,92839.50
2023-05-23T00:34:19.310Z,92836.34
2023-05-23T00:35:51.020Z,92845.22
2023-05-23T00:37:22.806Z,92841.09
2023-05-23T00:38:54.484Z,92842.53
2023-05-23T00:40:26.704Z,92842.53
2023-05-23T00:41:58.336Z,92839.50
2023-05-23T00:43:29.932Z,92841.25
2023-05-23T00:45:01.505Z,92841.75
2023-05-23T00:46:33.419Z,92841.13
2023-05-23T00:48:05.719Z,92834.34
2023-05-23T00:49:37.902Z,92839.59
2023-05-23T00:51:09.513Z,92834.38
2023-05-23T00:52:41.377Z,92845.81
2023-05-23T00:54:13.362Z,92840.75
2023-05-23T00:55:45.567Z,92833.59
2023-05-23T00:57:17.231Z,92840.00
2023-05-23T00:58:48.852Z,92845.06
2023-05-23T01:00:20.768Z,92845.72
2023-05-23T01:01:53.580Z,92842.56
2023-05-23T01:03:28.911Z,92843.69
2023-05-23T01:05:02.628Z,92839.88
2023-05-23T01:06:34.267Z,92836.38
2023-05-23T01:08:06.284Z,92831.78
2023-05-23T01:09:38.115Z,92823.38
2023-05-23T01:11:16.042Z,92829.22
2023-05-23T01:12:51.796Z,92821.59
2023-05-23T01:14:24.716Z,92829.03
2023-05-23T01:16:03.325Z,92835.56
2023-05-23T01:17:42.447Z,92826.50
2023-05-23T01:19:29.458Z,92829.72
2023-05-23T01:21:06.986Z,92837.53
2023-05-23T01:22:49.287Z,92830.88
2023-05-23T01:24:23.574Z,92837.69
2023-05-23T01:25:59.804Z,92829.91
2023-05-23T01:27:46.695Z,92834.53
2023-05-23T01:29:28.791Z,92834.56
2023-05-23T01:31:00.933Z,92838.06
2023-05-23T01:32:33.028Z,92841.88
2023-05-23T01:34:05.178Z,92840.44
2023-05-23T01:35:37.114Z,92834.44
2023-05-23T01:37:09.731Z,92826.66
2023-05-23T01:38:41.388Z,92827.13
2023-05-23T01:40:13.029Z,92840.44
2023-05-23T01:41:44.631Z,92837.59
2023-05-23T01:43:16.238Z,92828.56
2023-05-23T01:44:47.792Z,92826.03
2023-05-23T01:46:19.574Z,92826.03
2023-05-23T01:47:51.545Z,92831.41
2023-05-23T01:49:23.603Z,92836.81
2023-05-23T01:50:55.332Z,92837.91
2023-05-23T01:52:26.976Z,92834.44
2023-05-23T01:53:58.659Z,92831.41
2023-05-23T01:55:31.361Z,92829.81
2023-05-23T01:57:03.222Z,92829.81
2023-05-23T01:58:35.055Z,92831.72
2023-05-23T02:00:07.215Z,92836.81
2023-05-23T02:01:39.784Z,92832.03
2023-05-23T02:03:12.061Z,92830.75
2023-05-23T02:04:43.941Z,92834.56
2023-05-23T02:06:16.141Z,92822.66
2023-05-23T02:07:47.984Z,92822.34
2023-05-23T02:09:19.472Z,92825.84
2023-05-23T02:10:51.087Z,92821.25
2023-05-23T02:12:22.765Z,92822.66
2023-05-23T02:13:54.291Z,92824.56
2023-05-23T02:15:26.564Z,92822.66
2023-05-23T02:16:58.214Z,92826.47
2023-05-23T02:18:30.122Z,92820.31
2023-05-23T02:20:01.774Z,92823.16
2023-05-23T02:21:35.498Z,92816.97
2023-05-23T02:23:07.334Z,92819.97
2023-05-23T02:24:39.033Z,92816.97
2023-05-23T02:26:10.752Z,92823.47
2023-05-23T02:27:42.243Z,92822.66
2023-05-23T02:29:13.876Z,92822.06
2023-05-23T02:30:45.831Z,92820.00
2023-05-23T02:32:17.535Z,92820.78
2023-05-23T02:33:49.115Z,92821.25
2023-05-23T02:35:20.827Z,92821.25
2023-05-23T02:36:52.459Z,92830.47
2023-05-23T02:38:24.353Z,92826.19
2023-05-23T02:39:56.556Z,92820.31
2023-05-23T02:41:28.221Z,92822.88
2023-05-23T02:42:59.935Z,92826.50
2023-05-23T02:44:31.598Z,92817.03
2023-05-23T02:46:03.196Z,92823.84
2023-05-23T02:47:35.175Z,92818.75
2023-05-23T02:49:06.913Z,92824.75
2023-05-23T02:50:38.549Z,92821.88
2023-05-23T02:52:10.409Z,92821.44
2023-05-23T02:53:42.136Z,92818.75
2023-05-23T02:55:13.804Z,92823.03
2023-05-23T02:56:45.685Z,92816.03
2023-05-23T02:58:17.207Z,92818.75
2023-05-23T02:59:48.949Z,92817.16
2023-05-23T03:01:20.734Z,92818.41
2023-05-23T03:02:52.433Z,92812.53
2023-05-23T03:04:24.212Z,92817.78
2023-05-23T03:05:56.605Z,92811.28
2023-05-23T03:07:28.951Z,92815.56
2023-05-23T03:09:01.336Z,92809.53
2023-05-23T03:10:32.813Z,92816.03
2023-05-23T03:12:05.144Z,92812.53
2023-05-23T03:13:36.767Z,92811.91
2023-05-23T03:15:08.662Z,92812.69
2023-05-23T03:16:40.591Z,92809.22
2023-05-23T03:18:13.149Z,92809.53
2023-05-23T03:19:44.794Z,92809.53
2023-05-23T03:21:16.531Z,92815.41
2023-05-23T03:22:48.492Z,92811.91
2023-05-23T03:24:20.712Z,92806.84
2023-05-23T03:25:52.748Z,92807.94
2023-05-23T03:27:24.242Z,92817.94
2023-05-23T03:28:56.290Z,92812.09
2023-05-23T03:30:28.019Z,92819.06
2023-05-23T03:31:59.569Z,92814.91
2023-05-23T03:33:31.601Z,92815.72
2023-05-23T03:35:03.418Z,92821.09
2023-05-23T03:36:36.113Z,92817.28
2023-05-23T03:38:08.159Z,92828.88
2023-05-23T03:39:40.091Z,92823.47
2023-05-23T03:41:11.813Z,92818.25
2023-05-23T03:42:43.707Z,92822.22
2023-05-23T03:44:16.295Z,92825.53
2023-05-23T03:45:48.057Z,92831.25
2023-05-23T03:47:19.587Z,92827.47
2023-05-23T03:48:52.322Z,92836.00
2023-05-23T03:50:24.168Z,92831.72
2023-05-23T03:51:55.933Z,92837.41
2023-05-23T03:53:27.498Z,92829.16
2023-05-23T03:55:00.148Z,92838.19
2023-05-23T03:56:31.963Z,92835.63
2023-05-23T03:58:03.817Z,92836.41
2023-05-23T03:59:36.062Z,92834.84
2023-05-23T04:01:07.702Z,92834.19
2023-05-23T04:02:42.444Z,92844.16
2023-05-23T04:04:14.521Z,92834.94
2023-05-23T04:05:46.333Z,92842.53
2023-05-23T04:07:17.888Z,92845.66
2023-05-23T04:08:49.647Z,92843.91
2023-05-23T04:10:21.468Z,92844.38
2023-05-23T04:11:53.490Z,92845.94
2023-05-23T04:13:26.557Z,92845.56
2023-05-23T04:14:58.169Z,92851.91
2023-05-23T04:16:33.561Z,92841.03
2023-05-23T04:18:08.206Z,92839.53
2023-05-23T04:19:39.835Z,92835.81
2023-05-23T04:21:11.620Z,92847.13
2023-05-23T04:22:43.938Z,92847.69
2023-05-23T04:24:15.901Z,92846.16
2023-05-23T04:25:48.506Z,92844.84
2023-05-23T04:27:20.937Z,92848.28
2023-05-23T04:28:54.492Z,92837.03
2023-05-23T04:30:26.147Z,92840.66
2023-05-23T04:31:58.800Z,92847.22
2023-05-23T04:33:30.693Z,92851.47
2023-05-23T04:35:02.776Z,92849.22
2023-05-23T04:36:38.319Z,92849.03
2023-05-23T04:38:11.086Z,92848.41
2023-05-23T04:39:43.685Z,92843.25
2023-05-23T04:41:16.631Z,92850.81
2023-05-23T04:42:48.548Z,92860.78
2023-05-23T04:44:20.396Z,92848.47
2023-05-23T04:45:54.467Z,92849.72
2023-05-23T04:47:28.816Z,92843.31
2023-05-23T04:49:00.583Z,92851.53
2023-05-23T04:50:33.390Z,92852.13
2023-05-23T04:52:05.096Z,92858.00
2023-05-23T04:53:37.291Z,92847.84
2023-05-23T04:55:09.053Z,92845.69
2023-05-23T04:56:40.904Z,92853.88
2023-05-23T04:58:13.251Z,92857.72
2023-05-23T04:59:44.939Z,92851.91
2023-05-23T05:01:17.316Z,92852.25
2023-05-23T05:02:49.008Z,92849.22
2023-05-23T05:04:20.961Z,92853.28
2023-05-23T05:05:53.564Z,92849.22
2023-05-23T05:07:25.148Z,92850.38
2023-05-23T05:08:56.831Z,92843.50
2023-05-23T05:10:28.471Z,92845.91
2023-05-23T05:12:00.186Z,92845.22
2023-05-23T05:13:31.903Z,92858.63
2023-05-23T05:15:03.938Z,92852.72
2023-05-23T05:16:36.481Z,92844.91
2023-05-23T05:18:08.191Z,92842.06
2023-05-23T05:19:40.906Z,92842.38
2023-05-23T05:21:12.549Z,92850.06
2023-05-23T05:22:44.841Z,92855.06
2023-05-23T05:24:16.448Z,92851.06
2023-05-23T05:25:48.134Z,92848.88
2023-05-23T05:27:19.886Z,92851.81
2023-05-23T05:28:54.463Z,92845.59
2023-05-23T05:30:26.192Z,92849.66
2023-05-23T05:31:57.859Z,92851.97
2023-05-23T05:33:29.519Z,92864.66
2023-05-23T05:35:01.645Z,92856.44
2023-05-23T05:36:33.590Z,92861.22
2023-05-23T05:38:05.436Z,92859.75
2023-05-23T05:39:37.038Z,92866.75
2023-05-23T05:41:09.482Z,92859.59
2023-05-23T05:42:41.559Z,92863.63
2023-05-23T05:44:14.803Z,92864.50
2023-05-23T05:45:46.429Z,92861.97
2023-05-23T05:47:18.149Z,92863.84
2023-05-23T05:48:49.641Z,92859.09
2023-05-23T05:50:21.756Z,92866.91
2023-05-23T05:51:53.571Z,92858.31
2023-05-23T05:53:26.088Z,92861.53
2023-05-23T05:54:57.971Z,92852.59
2023-05-23T05:56:29.734Z,92858.03
2023-05-23T05:58:01.430Z,92855.19
2023-05-23T05:59:33.233Z,92859.28
2023-05-23T06:01:06.150Z,92844.03
2023-05-23T06:02:38.079Z,92845.91
2023-05-23T06:04:09.890Z,92853.69
2023-05-23T06:05:42.152Z,92848.09
2023-05-23T06:07:13.666Z,92845.31
2023-05-23T06:08:45.286Z,92846.81
2023-05-23T06:10:17.048Z,92845.53
2023-05-23T06:11:48.769Z,92844.63
2023-05-23T06:13:20.476Z,92855.44
2023-05-23T06:14:52.293Z,92857.28
2023-05-23T06:16:24.567Z,92851.53
2023-05-23T06:17:56.750Z,92851.75
2023-05-23T06:19:28.569Z,92851.53
2023-05-23T06:21:00.496Z,92853.06
2023-05-23T06:22:32.672Z,92847.44
2023-05-23T06:24:04.588Z,92853.94
2023-05-23T06:25:36.607Z,92859.63
2023-05-23T06:27:08.220Z,92853.66
2023-05-23T06:28:40.651Z,92851.84
2023-05-23T06:30:12.772Z,92848.31
2023-05-23T06:31:44.522Z,92851.06
2023-05-23T06:33:16.586Z,92843.38
2023-05-23T06:34:48.313Z,92853.38
2023-05-23T06:36:20.226Z,92852.97
2023-05-23T06:37:52.548Z,92842.72
2023-05-23T06:39:24.981Z,92844.13
2023-05-23T06:40:56.831Z,92845.59
2023-05-23T06:42:28.954Z,92838.41
2023-05-23T06:44:00.747Z,92841.28
2023-05-23T06:45:35.264Z,92846.16
2023-05-23T06:47:06.934Z,92848.66
2023-05-23T06:48:38.685Z,92838.25
2023-05-23T06:50:10.393Z,92843.44
2023-05-23T06:51:42.128Z,92845.53
2023-05-23T06:53:14.129Z,92840.53
2023-05-23T06:54:46.097Z,92841.25
2023-05-23T06:56:17.838Z,92849.03
2023-05-23T06:57:52.357Z,92838.84
2023-05-23T06:59:24.649Z,92837.97
2023-05-23T07:00:56.667Z,92841.00
2023-05-23T07:02:28.317Z,92838.63
2023-05-23T07:04:00.636Z,92838.81
2023-05-23T07:05:34.967Z,92846.19
2023-05-23T07:07:06.612Z,92838.38
2023-05-23T07:08:38.497Z,92830.50
2023-05-23T07:10:10.212Z,92839.47
2023-05-23T07:11:42.533Z,92839.06
2023-05-23T07:13:14.143Z,92837.84
2023-05-23T07:14:45.901Z,92842.13
2023-05-23T07:16:17.562Z,92837.81
2023-05-23T07:17:49.232Z,92834.66
2023-05-23T07:19:21.515Z,92840.06
2023-05-23T07:20:53.303Z,92829.94
2023-05-23T07:22:24.981Z,92824.91
2023-05-23T07:23:57.540Z,92824.09
2023-05-23T07:25:29.784Z,92821.00
2023-05-23T07:27:01.454Z,92819.84
2023-05-23T07:28:33.497Z,92824.59
2023-05-23T07:30:05.430Z,92819.16
2023-05-23T07:31:37.334Z,92819.19
2023-05-23T07:33:09.521Z,92807.84
2023-05-23T07:34:41.677Z,92811.38
2023-05-23T07:36:13.830Z,92818.72
2023-05-23T07:37:48.374Z,92811.28
2023-05-23T07:39:22.711Z,92810.16
2023-05-23T07:41:06.747Z,92814.16
2023-05-23T07:42:42.941Z,92806.78
2023-05-23T07:44:14.706Z,92810.72
2023-05-23T07:45:46.432Z,92811.13
2023-05-23T07:47:18.195Z,92814.69
2023-05-23T07:48:50.447Z,92815.19
2023-05-23T07:50:22.242Z,92808.28
2023-05-23T07:51:54.305Z,92810.72
2023-05-23T07:53:26.866Z,92815.09
2023-05-23T07:54:58.975Z,92812.03
2023-05-23T07:56:31.420Z,92809.72
2023-05-23T07:58:03.124Z,92807.38
2023-05-23T07:59:34.865Z,92809.16
2023-05-23T08:01:06.573Z,92811.09
2023-05-23T08:02:38.899Z,92818.25
2023-05-23T08:04:11.395Z,92816.09
2023-05-23T08:05:43.602Z,92806.88
2023-05-23T08:07:17.352Z,92810.53
2023-05-23T08:08:51.884Z,92807.16
2023-05-23T08:10:23.798Z,92809.97
2023-05-23T08:11:55.760Z,92808.88
2023-05-23T08:13:27.740Z,92812.78
2023-05-23T08:14:59.483Z,92813.91
2023-05-23T08:16:31.029Z,92817.81
2023-05-23T08:18:02.745Z,92813.56
2023-05-23T08:19:36.340Z,92821.47
2023-05-23T08:21:08.264Z,92805.13
2023-05-23T08:22:40.268Z,92805.22
2023-05-23T08:24:14.981Z,92795.03
2023-05-23T08:25:47.658Z,92800.97
2023-05-23T08:27:20.948Z,92800.16
2023-05-23T08:28:53.132Z,92793.06
2023-05-23T08:30:25.689Z,92794.63
2023-05-23T08:31:57.781Z,92790.31
2023-05-23T08:33:29.566Z,92786.91
2023-05-23T08:35:01.689Z,92788.94
2023-05-23T08:36:37.507Z,92794.09
2023-05-23T08:38:09.672Z,92787.50
2023-05-23T08:39:41.887Z,92788.31
2023-05-23T08:41:16.773Z,92790.31
2023-05-23T08:42:49.781Z,92791.53
2023-05-23T08:44:22.136Z,92790.28
2023-05-23T08:45:54.109Z,92787.97
2023-05-23T08:47:29.393Z,92795.47
2023-05-23T08:49:01.241Z,92786.84
2023-05-23T08:50:33.114Z,92779.38
2023-05-23T08:52:05.188Z,92773.13
2023-05-23T08:53:37.814Z,92778.59
2023-05-23T08:55:09.827Z,92774.31
2023-05-23T08:56:41.792Z,92776.66
2023-05-23T08:58:14.769Z,92777.81
2023-05-23T08:59:47.453Z,92768.41
2023-05-23T09:01:20.672Z,92771.94
2023-05-23T09:02:53.054Z,92776.25
2023-05-23T09:04:25.388Z,92777.03
2023-05-23T09:05:57.915Z,92781.72
2023-05-23T09:07:29.950Z,92769.91
2023-05-23T09:09:01.926Z,92773.44
2023-05-23T09:10:33.986Z,92769.50
2023-05-23T09:12:06.475Z,92769.47
2023-05-23T09:13:38.295Z,92773.47
2023-05-23T09:15:10.899Z,92770.72
2023-05-23T09:16:43.313Z,92776.19
2023-05-23T09:18:15.327Z,92776.97
2023-05-23T09:19:50.274Z,92771.47
2023-05-23T09:21:22.480Z,92769.06
2023-05-23T09:22:55.125Z,92770.28
2023-05-23T09:24:34.495Z,92759.25
2023-05-23T09:26:15.529Z,92769.09
2023-05-23T09:27:48.335Z,92770.69
2023-05-23T09:29:20.614Z,92762.78
2023-05-23T09:31:00.051Z,92769.81
2023-05-23T09:32:32.069Z,92766.53
2023-05-23T09:34:03.839Z,92769.19
2023-05-23T09:35:35.912Z,92760.81
2023-05-23T09:37:08.390Z,92771.34
2023-05-23T09:38:41.374Z,92775.13
2023-05-23T09:40:14.435Z,92774.63
2023-05-23T09:41:48.557Z,92769.88
2023-05-23T09:43:20.141Z,92769.19
2023-05-23T09:44:53.688Z,92766.84
2023-05-23T09:46:28.055Z,92767.56
2023-05-23T09:48:02.882Z,92767.78
2023-05-23T09:49:35.303Z,92773.56
2023-05-23T09:51:07.802Z,92757.97
2023-05-23T09:52:39.443Z,92753.44
2023-05-23T09:54:11.015Z,92753.28
2023-05-23T09:55:42.644Z,92759.09
2023-05-23T09:57:14.778Z,92754.69
2023-05-23T09:58:49.591Z,92755.09
2023-05-23T10:00:21.359Z,92756.97
2023-05-23T10:01:53.701Z,92752.47
2023-05-23T10:03:31.477Z,92755.06
2023-05-23T10:05:03.548Z,92755.66
2023-05-23T10:06:40.391Z,92746.44
2023-05-23T10:08:15.444Z,92746.88
2023-05-23T10:09:58.985Z,92755.81
2023-05-23T10:11:36.940Z,92746.78
2023-05-23T10:13:08.623Z,92753.38
2023-05-23T10:14:41.220Z,92748.94
2023-05-23T10:16:12.823Z,92746.84
2023-05-23T10:17:51.071Z,92751.53
2023-05-23T10:19:29.557Z,92747.22
2023-05-23T10:21:17.625Z,92748.00
2023-05-23T10:22:49.299Z,92748.59
2023-05-23T10:24:21.125Z,92741.66
2023-05-23T10:25:53.290Z,92742.34
2023-05-23T10:27:25.407Z,92755.63
2023-05-23T10:28:58.008Z,92745.16
2023-05-23T10:30:29.927Z,92745.13
2023-05-23T10:32:05.705Z,92735.59
2023-05-23T10:33:53.095Z,92736.19
2023-05-23T10:35:43.640Z,92741.50
2023-05-23T10:37:24.093Z,92728.81
2023-05-23T10:38:58.928Z,92737.94
2023-05-23T10:40:33.566Z,92731.94
2023-05-23T10:42:08.662Z,92730.34
2023-05-23T10:43:40.358Z,92734.16
2023-05-23T10:45:15.559Z,92726.94
2023-05-23T10:46:58.333Z,92734.06
2023-05-23T10:48:36.816Z,92732.66
2023-05-23T10:50:09.046Z,92731.59
2023-05-23T10:51:40.977Z,92730.00
2023-05-23T10:53:12.664Z,92726.59
2023-05-23T10:54:45.164Z,92731.22
2023-05-23T10:56:22.661Z,92725.13
2023-05-23T10:58:13.465Z,92736.69
2023-05-23T10:59:45.430Z,92736.94
2023-05-23T11:01:18.202Z,92724.69
2023-05-23T11:03:00.693Z,92726.56
2023-05-23T11:04:33.324Z,92720.56
2023-05-23T11:06:06.305Z,92720.66
2023-05-23T11:07:37.896Z,92723.91
2023-05-23T11:09:19.414Z,92717.81
2023-05-23T11:10:57.176Z,92726.66
2023-05-23T11:12:41.040Z,92715.47
2023-05-23T11:14:12.617Z,92725.22
2023-05-23T11:15:46.404Z,92720.13
2023-05-23T11:17:19.029Z,92723.06
2023-05-23T11:18:51.247Z,92726.31
2023-05-23T11:20:28.483Z,92724.84
2023-05-23T11:22:01.051Z,92723.28
2023-05-23T11:23:51.175Z,92719.75
2023-05-23T11:25:23.899Z,92720.53
2023-05-23T11:27:00.396Z,92720.06
2023-05-23T11:28:32.141Z,92719.47
2023-05-23T11:30:04.435Z,92720.84
2023-05-23T11:31:40.745Z,92713.88
2023-05-23T11:33:15.608Z,92713.53
2023-05-23T11:34:47.736Z,92715.19
2023-05-23T11:36:19.627Z,92712.16
2023-05-23T11:37:51.853Z,92709.72
2023-05-23T11:39:26.087Z,92704.88
2023-05-23T11:40:58.195Z,92704.72
2023-05-23T11:42:29.843Z,92708.06
2023-05-23T11:44:02.300Z,92705.16
2023-05-23T11:45:34.488Z,92711.44
2023-05-23T11:47:07.107Z,92703.56
2023-05-23T11:48:38.833Z,92705.72
2023-05-23T11:50:10.828Z,92706.63
2023-05-23T11:51:42.603Z,92701.16
2023-05-23T11:53:17.205Z,92699.00
2023-05-23T11:54:49.370Z,92700.81
2023-05-23T11:56:21.500Z,92693.59
2023-05-23T11:57:56.202Z,92694.88
2023-05-23T11:59:28.662Z,92690.41
2023-05-23T12:01:06.603Z,92692.59
2023-05-23T12:02:41.338Z,92688.66
2023-05-23T12:04:13.451Z,92687.13
2023-05-23T12:05:46.054Z,92688.81
2023-05-23T12:07:21.981Z,92679.75
2023-05-23T12:08:54.437Z,92682.47
2023-05-23T12:10:27.557Z,92690.41
2023-05-23T12:11:59.226Z,92694.19
2023-05-23T12:13:30.865Z,92686.16
2023-05-23T12:15:03.002Z,92687.84
2023-05-23T12:16:35.505Z,92690.00
2023-05-23T12:18:08.607Z,92681.16
2023-05-23T12:19:40.500Z,92687.28
2023-05-23T12:21:12.238Z,92674.91
2023-05-23T12:22:44.753Z,92675.00
2023-05-23T12:24:20.126Z,92681.50
2023-05-23T12:25:54.927Z,92679.34
2023-05-23T12:27:27.367Z,92667.34
2023-05-23T12:29:01.151Z,92661.13
2023-05-23T12:30:41.685Z,92663.13
2023-05-23T12:32:13.483Z,92661.59
2023-05-23T12:33:45.587Z,92656.09
2023-05-23T12:35:18.043Z,92660.44
2023-05-23T12:36:52.018Z,92651.84
2023-05-23T12:38:29.099Z,92654.53
2023-05-23T12:40:13.273Z,92659.66
2023-05-23T12:41:48.009Z,92655.38
2023-05-23T12:43:20.330Z,92651.41
2023-05-23T12:44:52.917Z,92650.63
2023-05-23T12:46:25.396Z,92647.53
2023-05-23T12:47:58.508Z,92655.38
2023-05-23T12:49:30.513Z,92642.06
2023-05-23T12:51:03.307Z,92649.91
2023-05-23T12:52:36.794Z,92643.69
2023-05-23T12:54:08.932Z,92644.88
2023-05-23T12:55:40.966Z,92636.66
2023-05-23T12:57:12.883Z,92647.69
2023-05-23T12:58:44.524Z,92645.31
2023-05-23T13:00:16.481Z,92643.41
2023-05-23T13:01:54.399Z,92638.28
2023-05-23T13:03:26.474Z,92632.81
2023-05-23T13:04:58.554Z,92635.19
2023-05-23T13:06:30.787Z,92634.34
2023-05-23T13:08:03.348Z,92635.16
2023-05-23T13:09:35.138Z,92635.97
2023-05-23T13:11:06.993Z,92632.81
2023-05-23T13:12:38.982Z,92635.94
2023-05-23T13:14:10.808Z,92638.69
2023-05-23T13:15:45.406Z,92643.78
2023-05-23T13:17:18.129Z,92645.75
2023-05-23T13:18:50.115Z,92637.13
2023-05-23T13:20:22.791Z,92632.41
2023-05-23T13:21:55.174Z,92632.03
2023-05-23T13:23:26.916Z,92634.38
2023-05-23T13:24:59.144Z,92636.75
2023-05-23T13:26:30.869Z,92629.25
2023-05-23T13:28:02.525Z,92638.69
2023-05-23T13:29:34.218Z,92629.66
2023-05-23T13:31:06.569Z,92635.53
2023-05-23T13:32:38.306Z,92635.91
2023-05-23T13:34:09.938Z,92639.81
2023-05-23T13:35:41.876Z,92637.44
2023-05-23T13:37:13.676Z,92633.09
2023-05-23T13:38:45.290Z,92645.66
2023-05-23T13:40:18.627Z,92640.16
2023-05-23T13:41:50.695Z,92648.81
2023-05-23T13:43:22.596Z,92644.06
2023-05-23T13:44:54.566Z,92655.88
2023-05-23T13:46:26.844Z,92655.50
2023-05-23T13:47:59.211Z,92646.50
2023-05-23T13:49:31.488Z,92656.69
2023-05-23T13:51:03.400Z,92648.84
2023-05-23T13:52:35.323Z,92648.44
2023-05-23T13:54:07.238Z,92658.25
2023-05-23T13:55:39.023Z,92651.16
2023-05-23T13:57:10.589Z,92646.06
2023-05-23T13:58:43.047Z,92647.66
2023-05-23T14:00:14.709Z,92650.00
2023-05-23T14:01:46.721Z,92656.28
2023-05-23T14:03:19.976Z,92653.53
2023-05-23T14:04:51.818Z,92653.16
2023-05-23T14:06:23.492Z,92651.19
2023-05-23T14:07:55.204Z,92654.72
2023-05-23T14:09:26.825Z,92661.00
2023-05-23T14:10:58.469Z,92650.03
2023-05-23T14:12:30.152Z,92649.63
2023-05-23T14:14:01.969Z,92653.16
2023-05-23T14:15:34.615Z,92659.78
2023-05-23T14:17:06.405Z,92647.63
2023-05-23T14:18:38.067Z,92658.63
2023-05-23T14:20:10.782Z,92646.84
2023-05-23T14:21:44.767Z,92651.97
2023-05-23T14:23:16.787Z,92651.56
2023-05-23T14:24:49.184Z,92658.66
2023-05-23T14:26:20.892Z,92645.31
2023-05-23T14:27:52.439Z,92652.38
2023-05-23T14:29:24.056Z,92646.88
2023-05-23T14:30:56.154Z,92643.75
2023-05-23T14:32:28.471Z,92644.88
2023-05-23T14:34:00.141Z,92641.75
2023-05-23T14:35:31.704Z,92637.41
2023-05-23T14:37:03.936Z,92634.66
2023-05-23T14:38:36.353Z,92627.16
2023-05-23T14:40:10.660Z,92633.84
2023-05-23T14:41:42.239Z,92637.72
2023-05-23T14:43:14.346Z,92643.56
2023-05-23T14:44:46.153Z,92646.25
2023-05-23T14:46:17.972Z,92645.03
2023-05-23T14:47:49.663Z,92642.63
2023-05-23T14:49:21.362Z,92641.44
2023-05-23T14:50:54.025Z,92630.06
2023-05-23T14:52:25.572Z,92626.09
2023-05-23T14:53:57.722Z,92637.44
2023-05-23T14:55:29.412Z,92640.19
2023-05-23T14:57:01.827Z,92631.63
2023-05-23T14:58:33.799Z,92634.41
2023-05-23T15:00:06.141Z,92637.94
2023-05-23T15:01:40.002Z,92630.06
2023-05-23T15:03:13.217Z,92633.59
2023-05-23T15:04:45.373Z,92633.97
2023-05-23T15:06:16.979Z,92638.63
2023-05-23T15:07:48.562Z,92631.94
2023-05-23T15:09:21.025Z,92632.38
2023-05-23T15:10:52.690Z,92632.38
2023-05-23T15:12:24.340Z,92631.19
2023-05-23T15:13:55.962Z,92627.69
2023-05-23T15:15:34.097Z,92631.66
2023-05-23T15:17:08.305Z,92635.63
2023-05-23T15:18:42.037Z,92632.50
2023-05-23T15:20:15.442Z,92637.63
2023-05-23T15:21:51.148Z,92632.16
2023-05-23T15:23:23.568Z,92637.66
2023-05-23T15:24:55.219Z,92632.91
2023-05-23T15:26:27.487Z,92638.00
2023-05-23T15:27:59.380Z,92632.13
2023-05-23T15:29:31.468Z,92635.66
2023-05-23T15:31:02.995Z,92637.22
2023-05-23T15:32:34.564Z,92631.72
2023-05-23T15:34:08.746Z,92642.66
2023-05-23T15:35:40.618Z,92637.56
2023-05-23T15:37:12.858Z,92638.78
2023-05-23T15:38:44.972Z,92644.66
2023-05-23T15:40:17.197Z,92633.28
2023-05-23T15:41:48.982Z,92642.00
2023-05-23T15:43:21.207Z,92645.16
2023-05-23T15:44:52.923Z,92643.63
2023-05-23T15:46:24.757Z,92641.28
2023-05-23T15:47:56.461Z,92643.69
2023-05-23T15:49:28.258Z,92638.97
2023-05-23T15:51:00.403Z,92639.78
2023-05-23T15:52:32.722Z,92635.84
2023-05-23T15:54:04.746Z,92637.06
2023-05-23T15:55:39.795Z,92637.44
2023-05-23T15:57:13.521Z,92630.78
2023-05-23T15:58:46.088Z,92635.09
2023-05-23T16:00:18.620Z,92640.97
2023-05-23T16:01:50.454Z,92638.63
2023-05-23T16:03:22.890Z,92638.63
2023-05-23T16:04:54.634Z,92631.94
2023-05-23T16:06:28.284Z,92636.25
2023-05-23T16:07:59.843Z,92637.06
2023-05-23T16:09:31.528Z,92641.38
2023-05-23T16:11:03.496Z,92643.34
2023-05-23T16:12:35.179Z,92639.81
2023-05-23T16:14:06.738Z,92645.31
2023-05-23T16:15:38.385Z,92640.63
2023-05-23T16:17:10.291Z,92645.75
2023-05-23T16:18:41.945Z,92643.00
2023-05-23T16:20:13.620Z,92644.16
2023-05-23T16:21:45.988Z,92632.41
2023-05-23T16:23:17.915Z,92643.38
2023-05-23T16:24:49.564Z,92638.28
2023-05-23T16:26:21.836Z,92634.75
2023-05-23T16:27:53.424Z,92643.75
2023-05-23T16:29:25.987Z,92642.22
2023-05-23T16:30:57.623Z,92637.50
2023-05-23T16:32:29.447Z,92641.00
2023-05-23T16:34:01.181Z,92644.91
2023-05-23T16:35:32.908Z,92647.66
2023-05-23T16:37:04.609Z,92649.22
2023-05-23T16:38:36.065Z,92653.16
2023-05-23T16:40:08.054Z,92657.88
2023-05-23T16:41:39.730Z,92651.97
2023-05-23T16:43:12.037Z,92660.97
2023-05-23T16:44:43.719Z,92660.97
2023-05-23T16:46:16.107Z,92656.25
2023-05-23T16:47:49.280Z,92660.13
2023-05-23T16:49:21.667Z,92658.16
2023-05-23T16:50:53.870Z,92667.13
2023-05-23T16:52:25.912Z,92663.59
2023-05-23T16:53:57.925Z,92665.13
2023-05-23T16:55:29.533Z,92669.81
2023-05-23T16:57:02.291Z,92667.06
2023-05-23T16:58:38.530Z,92661.16
2023-05-23T17:00:10.875Z,92661.91
2023-05-23T17:01:42.488Z,92665.41
2023-05-23T17:03:14.366Z,92659.91
2023-05-23T17:04:46.854Z,92660.28
2023-05-23T17:06:19.118Z,92662.19
2023-05-23T17:07:50.787Z,92665.31
2023-05-23T17:09:22.949Z,92664.50
2023-05-23T17:10:54.557Z,92675.03
2023-05-23T17:12:26.789Z,92668.78
2023-05-23T17:13:58.426Z,92673.41
2023-05-23T17:15:30.758Z,92680.41
2023-05-23T17:17:03.901Z,92676.84
2023-05-23T17:18:36.763Z,92679.97
2023-05-23T17:20:09.737Z,92677.94
2023-05-23T17:21:41.470Z,92677.88
2023-05-23T17:23:13.082Z,92675.81
2023-05-23T17:24:45.131Z,92684.38
2023-05-23T17:26:18.341Z,92676.47
2023-05-23T17:27:51.243Z,92679.13
2023-05-23T17:29:22.779Z,92680.25
2023-05-23T17:30:54.527Z,92681.41
2023-05-23T17:32:29.595Z,92678.69
2023-05-23T17:34:01.503Z,92686.84
2023-05-23T17:35:33.126Z,92687.19
2023-05-23T17:37:04.959Z,92677.34
2023-05-23T17:38:38.963Z,92682.38
2023-05-23T17:40:11.621Z,92678.03
2023-05-23T17:41:43.313Z,92676.84
2023-05-23T17:43:15.369Z,92679.53
2023-05-23T17:44:46.921Z,92676.75
2023-05-23T17:46:18.640Z,92685.69
2023-05-23T17:47:50.712Z,92679.84
2023-05-23T17:49:22.521Z,92686.75
2023-05-23T17:50:54.352Z,92687.81
2023-05-23T17:52:26.063Z,92679.94
2023-05-23T17:53:57.686Z,92683.78
2023-05-23T17:55:29.413Z,92686.47
2023-05-23T17:57:02.159Z,92682.81
2023-05-23T17:58:33.732Z,92692.09
2023-05-23T18:00:06.232Z,92695.91
2023-05-23T18:01:37.916Z,92688.44
2023-05-23T18:03:09.537Z,92695.78
2023-05-23T18:04:44.630Z,92694.97
2023-05-23T18:06:16.741Z,92702.00
2023-05-23T18:07:48.724Z,92698.44
2023-05-23T18:09:20.691Z,92700.72